createdAt,value
2023-04-22T00:00:19.361Z,99983.50
2023-04-22T00:02:49.077Z,99995.66
2023-04-22T00:05:20.520Z,99988.56
2023-04-22T00:07:53.034Z,99990.31
2023-04-22T00:10:22.530Z,99985.13
2023-04-22T00:12:52.052Z,99979.97
2023-04-22T00:15:22.268Z,99978.25
2023-04-22T00:17:52.180Z,99984.34
2023-04-22T00:20:23.523Z,99977.28
2023-04-22T00:22:55.635Z,99985.03
2023-04-22T00:25:25.115Z,99980.44
2023-04-22T00:27:54.650Z,99977.75
2023-04-22T00:30:24.200Z,99974.13
2023-04-22T00:32:53.746Z,99974.06
2023-04-22T00:35:23.339Z,99973.03
2023-04-22T00:37:55.507Z,99977.28
2023-04-22T00:40:25.326Z,99975.41
2023-04-22T00:42:54.899Z,99970.09
2023-04-22T00:45:24.509Z,99972.63
2023-04-22T00:47:54.956Z,99974.28
2023-04-22T00:50:24.500Z,99977.78
2023-04-22T00:52:56.652Z,99977.03
2023-04-22T00:55:26.599Z,99977.78
2023-04-22T00:57:59.540Z,99973.25
2023-04-22T01:00:30.366Z,99973.13
2023-04-22T01:03:01.068Z,99980.88
2023-04-22T01:05:33.725Z,99984.25
2023-04-22T01:08:06.262Z,99986.84
2023-04-22T01:10:36.198Z,99987.69
2023-04-22T01:13:05.914Z,99978.19
2023-04-22T01:15:35.819Z,99981.66
2023-04-22T01:18:05.550Z,99978.97
2023-04-22T01:20:35.144Z,99983.38
2023-04-22T01:23:11.951Z,99984.25
2023-04-22T01:25:44.085Z,99994.16
2023-04-22T01:28:13.946Z,99982.84
2023-04-22T01:30:44.578Z,99988.88
2023-04-22T01:33:14.853Z,99986.13
2023-04-22T01:35:44.539Z,99993.13
2023-04-22T01:38:15.583Z,99982.63
2023-04-22T01:40:47.692Z,99985.19
2023-04-22T01:43:17.203Z,99980.78
2023-04-22T01:45:46.965Z,99986.00
2023-04-22T01:48:16.616Z,99974.69
2023-04-22T01:50:46.208Z,99979.81
2023-04-22T01:53:15.860Z,99987.59
2023-04-22T01:55:48.001Z,99994.41
2023-04-22T01:58:17.632Z,99982.41
2023-04-22T02:00:47.881Z,99968.31
2023-04-22T02:03:17.433Z,99968.19
2023-04-22T02:05:47.115Z,99972.22
2023-04-22T02:08:16.625Z,99966.69
2023-04-22T02:10:48.792Z,99963.16
2023-04-22T02:13:18.386Z,99961.66
2023-04-22T02:15:48.080Z,99960.63
2023-04-22T02:18:18.121Z,99958.78
2023-04-22T02:20:47.747Z,99957.75
2023-04-22T02:23:17.320Z,99967.16
2023-04-22T02:25:54.824Z,99956.72
2023-04-22T02:28:24.375Z,99956.09
2023-04-22T02:30:53.927Z,99960.91
2023-04-22T02:33:23.546Z,99955.59
2023-04-22T02:35:53.089Z,99949.50
2023-04-22T02:38:22.728Z,99949.25
2023-04-22T02:40:54.829Z,99947.56
2023-04-22T02:43:24.428Z,99956.97
2023-04-22T02:45:53.971Z,99952.59
2023-04-22T02:48:23.506Z,99941.38
2023-04-22T02:50:53.848Z,99935.03
2023-04-22T02:53:23.376Z,99945.84
2023-04-22T02:55:55.918Z,99937.75
2023-04-22T02:58:26.337Z,99940.22
2023-04-22T03:00:57.038Z,99939.34
2023-04-22T03:03:27.085Z,99946.25
2023-04-22T03:05:56.807Z,99939.63
2023-04-22T03:08:26.557Z,99941.22
2023-04-22T03:10:58.726Z,99940.25
2023-04-22T03:13:28.267Z,99935.84
2023-04-22T03:15:57.821Z,99937.50
2023-04-22T03:18:27.383Z,99935.78
2023-04-22T03:20:56.907Z,99934.75
2023-04-22T03:23:26.448Z,99933.91
2023-04-22T03:25:58.550Z,99930.72
2023-04-22T03:28:28.090Z,99938.50
2023-04-22T03:30:57.632Z,99932.31
2023-04-22T03:33:27.491Z,99925.13
2023-04-22T03:35:57.519Z,99934.50
2023-04-22T03:38:27.351Z,99936.22
2023-04-22T03:40:59.468Z,99924.56
2023-04-22T03:43:29.030Z,99934.84
2023-04-22T03:45:58.610Z,99915.59
2023-04-22T03:48:29.208Z,99919.22
2023-04-22T03:50:58.763Z,99926.63
2023-04-22T03:53:28.315Z,99922.66
2023-04-22T03:56:00.662Z,99924.81
2023-04-22T03:58:30.200Z,99927.66
2023-04-22T04:00:59.728Z,99934.88
2023-04-22T04:03:30.999Z,99934.63
2023-04-22T04:06:00.854Z,99922.16
2023-04-22T04:08:30.945Z,99920.19
2023-04-22T04:11:03.063Z,99921.72
2023-04-22T04:13:32.723Z,99923.72
2023-04-22T04:16:02.460Z,99925.72
2023-04-22T04:18:32.907Z,99921.59
2023-04-22T04:21:02.459Z,99921.88
2023-04-22T04:23:32.325Z,99926.34
2023-04-22T04:26:05.845Z,99935.38
2023-04-22T04:28:36.324Z,99932.75
2023-04-22T04:31:06.047Z,99934.44
2023-04-22T04:33:37.162Z,99930.78
2023-04-22T04:36:08.962Z,99936.81
2023-04-22T04:38:39.210Z,99935.63
2023-04-22T04:41:11.492Z,99943.72
2023-04-22T04:43:41.048Z,99930.66
2023-04-22T04:46:11.146Z,99934.19
2023-04-22T04:48:42.498Z,99942.28
2023-04-22T04:51:12.737Z,99943.22
2023-04-22T04:53:43.744Z,99948.31
2023-04-22T04:56:17.011Z,99940.50
2023-04-22T04:58:46.540Z,99939.59
2023-04-22T05:01:16.137Z,99939.88
2023-04-22T05:03:45.862Z,99944.94
2023-04-22T05:06:15.493Z,99950.03
2023-04-22T05:08:45.066Z,99958.88
2023-04-22T05:11:17.214Z,99953.19
2023-04-22T05:13:48.006Z,99957.28
2023-04-22T05:16:17.731Z,99959.63
2023-04-22T05:18:47.299Z,99972.41
2023-04-22T05:21:17.025Z,99974.13
2023-04-22T05:23:46.560Z,99973.59
2023-04-22T05:26:18.812Z,99975.31
2023-04-22T05:28:48.350Z,99969.59
2023-04-22T05:31:17.939Z,99961.22
2023-04-22T05:33:47.480Z,99971.63
2023-04-22T05:36:17.164Z,99969.59
2023-04-22T05:38:46.703Z,99967.25
2023-04-22T05:41:18.890Z,99964.56
2023-04-22T05:43:48.470Z,99966.94
2023-04-22T05:46:18.101Z,99973.34
2023-04-22T05:48:49.139Z,99972.03
2023-04-22T05:51:18.767Z,99968.75
2023-04-22T05:53:48.332Z,99966.78
2023-04-22T05:56:21.172Z,99955.50
2023-04-22T05:58:50.686Z,99959.16
2023-04-22T06:01:20.304Z,99964.94
2023-04-22T06:03:50.065Z,99961.81
2023-04-22T06:06:20.077Z,99961.66
2023-04-22T06:08:49.620Z,99973.94
2023-04-22T06:11:22.251Z,99966.66
2023-04-22T06:13:52.014Z,99973.66
2023-04-22T06:16:21.602Z,99966.91
2023-04-22T06:18:51.263Z,99962.34
2023-04-22T06:21:20.846Z,99972.19
2023-04-22T06:23:50.450Z,99976.81
2023-04-22T06:26:22.776Z,99968.75
2023-04-22T06:28:52.456Z,99972.94
2023-04-22T06:31:22.100Z,99970.25
2023-04-22T06:33:51.786Z,99966.56
2023-04-22T06:36:21.366Z,99967.13
2023-04-22T06:38:50.872Z,99970.16
2023-04-22T06:41:24.000Z,99981.44
2023-04-22T06:43:53.592Z,99975.59
2023-04-22T06:46:23.168Z,99970.81
2023-04-22T06:48:52.802Z,99974.47
2023-04-22T06:51:22.559Z,99974.97
2023-04-22T06:53:52.090Z,99973.38
2023-04-22T06:56:24.247Z,99982.72
2023-04-22T06:58:53.867Z,99980.63
2023-04-22T07:01:23.407Z,99977.19
2023-04-22T07:03:53.053Z,99987.63
2023-04-22T07:06:22.707Z,99984.50
2023-04-22T07:08:52.309Z,99989.28
2023-04-22T07:11:24.501Z,99986.22
2023-04-22T07:13:54.045Z,99987.41
2023-04-22T07:16:23.612Z,99982.16
2023-04-22T07:18:53.393Z,99982.78
2023-04-22T07:21:23.091Z,99995.81
2023-04-22T07:23:52.801Z,99983.69
2023-04-22T07:26:24.969Z,99983.69
2023-04-22T07:28:54.704Z,99988.56
2023-04-22T07:31:24.278Z,99987.00
2023-04-22T07:33:53.852Z,99983.28
2023-04-22T07:36:23.659Z,99992.66
2023-04-22T07:38:53.239Z,99995.09
2023-04-22T07:41:25.337Z,100001.97
2023-04-22T07:43:55.638Z,99997.50
2023-04-22T07:46:25.199Z,99990.28
2023-04-22T07:48:54.785Z,99991.81
2023-04-22T07:51:25.958Z,99999.94
2023-04-22T07:53:55.630Z,99984.53
2023-04-22T07:56:27.734Z,99995.13
2023-04-22T07:58:57.298Z,99981.56
2023-04-22T08:01:26.842Z,99990.59
2023-04-22T08:03:56.468Z,99981.78
2023-04-22T08:06:26.293Z,99987.16
2023-04-22T08:08:55.887Z,99986.78
2023-04-22T08:11:28.122Z,99979.28
2023-04-22T08:13:57.710Z,99979.31
2023-04-22T08:16:27.449Z,99974.75
2023-04-22T08:18:57.962Z,99981.53
2023-04-22T08:21:27.556Z,99976.75
2023-04-22T08:23:57.114Z,99977.16
2023-04-22T08:26:29.338Z,99975.84
2023-04-22T08:28:59.060Z,99988.19
2023-04-22T08:31:28.622Z,99979.66
2023-04-22T08:33:58.636Z,99975.91
2023-04-22T08:36:28.594Z,99982.81
2023-04-22T08:38:58.180Z,99978.19
2023-04-22T08:41:30.791Z,99982.53
2023-04-22T08:44:00.698Z,99969.25
2023-04-22T08:46:30.475Z,99976.69
2023-04-22T08:49:04.020Z,99974.69
2023-04-22T08:51:35.118Z,99972.97
2023-04-22T08:54:04.817Z,99979.28
2023-04-22T08:56:38.225Z,99970.50
2023-04-22T08:59:08.059Z,99965.03
2023-04-22T09:01:38.680Z,99967.31
2023-04-22T09:04:09.313Z,99964.03
2023-04-22T09:06:41.309Z,99969.97
2023-04-22T09:09:11.620Z,99974.25
2023-04-22T09:11:44.212Z,99971.91
2023-04-22T09:14:13.753Z,99977.41
2023-04-22T09:16:44.935Z,99977.25
2023-04-22T09:19:15.916Z,99968.69
2023-04-22T09:21:49.096Z,99976.88
2023-04-22T09:24:20.850Z,99964.69
2023-04-22T09:26:53.008Z,99962.06
2023-04-22T09:29:22.594Z,99966.66
2023-04-22T09:31:53.288Z,99961.72
2023-04-22T09:34:25.059Z,99964.88
2023-04-22T09:36:54.638Z,99959.25
2023-04-22T09:39:26.477Z,99962.69
2023-04-22T09:42:00.054Z,99964.88
2023-04-22T09:44:30.533Z,99950.59
2023-04-22T09:47:00.106Z,99949.72
2023-04-22T09:49:30.624Z,99956.88
2023-04-22T09:52:00.733Z,99949.00
2023-04-22T09:54:30.270Z,99952.97
2023-04-22T09:57:02.671Z,99948.16
2023-04-22T09:59:33.064Z,99944.47
2023-04-22T10:02:04.773Z,99945.19
2023-04-22T10:04:34.867Z,99939.72
2023-04-22T10:07:04.695Z,99943.09
2023-04-22T10:09:34.385Z,99952.22
2023-04-22T10:12:07.931Z,99950.75
2023-04-22T10:14:37.455Z,99946.91
2023-04-22T10:17:08.433Z,99941.47
2023-04-22T10:19:38.890Z,99933.03
2023-04-22T10:22:10.640Z,99931.59
2023-04-22T10:24:41.048Z,99925.44
2023-04-22T10:27:13.696Z,99924.88
2023-04-22T10:29:44.214Z,99934.94
2023-04-22T10:32:29.231Z,99929.09
2023-04-22T10:35:15.276Z,99919.19
2023-04-22T10:37:46.193Z,99916.31
2023-04-22T10:40:19.111Z,99912.06
2023-04-22T10:42:56.059Z,99917.19
2023-04-22T10:45:27.943Z,99918.06
2023-04-22T10:47:57.579Z,99923.78
2023-04-22T10:50:28.793Z,99905.47
2023-04-22T10:53:00.474Z,99898.69
2023-04-22T10:55:53.683Z,99905.06
2023-04-22T10:58:27.506Z,99900.81
2023-04-22T11:01:03.310Z,99901.13
2023-04-22T11:03:33.608Z,99897.72
2023-04-22T11:06:19.821Z,99893.47
2023-04-22T11:08:50.631Z,99894.22
2023-04-22T11:11:21.432Z,99887.44
2023-04-22T11:13:53.723Z,99892.53
2023-04-22T11:16:25.169Z,99884.44
2023-04-22T11:18:55.399Z,99897.72
2023-04-22T11:21:26.338Z,99888.44
2023-04-22T11:23:57.163Z,99891.19
2023-04-22T11:26:37.816Z,99873.44
2023-04-22T11:29:11.400Z,99886.13
2023-04-22T11:31:41.018Z,99878.44
2023-04-22T11:34:12.129Z,99870.03
2023-04-22T11:36:45.627Z,99864.28
2023-04-22T11:39:16.941Z,99867.88
2023-04-22T11:41:46.636Z,99864.84
2023-04-22T11:44:19.551Z,99864.63
2023-04-22T11:46:49.074Z,99856.28
2023-04-22T11:49:19.833Z,99863.63
2023-04-22T11:51:57.242Z,99860.72
2023-04-22T11:54:34.298Z,99863.59
2023-04-22T11:57:05.846Z,99854.69
2023-04-22T11:59:38.275Z,99858.22
2023-04-22T12:02:08.668Z,99862.78
2023-04-22T12:04:42.679Z,99852.56
2023-04-22T12:07:12.291Z,99843.19
2023-04-22T12:09:42.382Z,99846.00
2023-04-22T12:12:12.111Z,99844.59
2023-04-22T12:14:48.524Z,99845.22
2023-04-22T12:17:20.198Z,99830.72
2023-04-22T12:19:50.461Z,99838.31
2023-04-22T12:22:27.088Z,99840.88
2023-04-22T12:24:56.933Z,99840.69
2023-04-22T12:27:26.510Z,99839.69
2023-04-22T12:29:59.408Z,99825.06
2023-04-22T12:32:29.962Z,99836.19
2023-04-22T12:34:59.478Z,99826.94
2023-04-22T12:37:29.020Z,99819.53
2023-04-22T12:39:58.549Z,99816.25
2023-04-22T12:42:28.106Z,99819.81
2023-04-22T12:45:00.233Z,99813.88
2023-04-22T12:47:29.853Z,99805.28
2023-04-22T12:50:01.444Z,99801.66
2023-04-22T12:52:31.423Z,99795.59
2023-04-22T12:55:00.932Z,99795.22
2023-04-22T12:57:30.518Z,99795.22
2023-04-22T13:00:04.440Z,99801.44
2023-04-22T13:02:34.143Z,99792.53
2023-04-22T13:05:03.757Z,99794.72
2023-04-22T13:07:35.483Z,99785.91
2023-04-22T13:10:05.215Z,99782.31
2023-04-22T13:12:35.878Z,99790.81
2023-04-22T13:15:11.040Z,99780.75
2023-04-22T13:17:41.240Z,99775.78
2023-04-22T13:20:14.261Z,99772.03
2023-04-22T13:22:44.212Z,99781.19
2023-04-22T13:25:13.950Z,99776.00
2023-04-22T13:27:43.477Z,99772.53
2023-04-22T13:30:16.895Z,99764.53
2023-04-22T13:32:46.520Z,99769.97
2023-04-22T13:35:18.231Z,99771.19
2023-04-22T13:37:47.785Z,99761.25
2023-04-22T13:40:17.370Z,99765.25
2023-04-22T13:42:47.065Z,99769.22
2023-04-22T13:45:19.277Z,99765.66
2023-04-22T13:47:48.962Z,99767.22
2023-04-22T13:50:18.515Z,99757.81
2023-04-22T13:52:48.238Z,99757.16
2023-04-22T13:55:17.791Z,99762.13
2023-04-22T13:57:47.855Z,99752.72
2023-04-22T14:00:21.049Z,99757.13
2023-04-22T14:02:51.041Z,99753.31
2023-04-22T14:05:20.823Z,99738.28
2023-04-22T14:07:50.392Z,99751.63
2023-04-22T14:10:20.542Z,99741.53
2023-04-22T14:12:50.348Z,99738.47
2023-04-22T14:15:22.726Z,99737.84
2023-04-22T14:17:52.227Z,99741.03
2023-04-22T14:20:21.796Z,99739.22
2023-04-22T14:22:51.339Z,99726.38
2023-04-22T14:25:21.118Z,99729.31
2023-04-22T14:27:50.717Z,99728.66
2023-04-22T14:30:23.128Z,99730.56
2023-04-22T14:32:53.262Z,99724.50
2023-04-22T14:35:22.930Z,99720.94
2023-04-22T14:37:52.539Z,99728.03
2023-04-22T14:40:26.300Z,99719.31
2023-04-22T14:42:55.983Z,99709.31
2023-04-22T14:45:29.025Z,99717.28
2023-04-22T14:47:58.801Z,99708.81
2023-04-22T14:50:28.942Z,99718.75
2023-04-22T14:52:59.099Z,99717.81
2023-04-22T14:55:29.321Z,99713.22
2023-04-22T14:57:59.575Z,99713.63
2023-04-22T15:00:32.284Z,99709.94
2023-04-22T15:03:02.018Z,99706.47
2023-04-22T15:05:31.680Z,99709.72
2023-04-22T15:08:01.210Z,99703.69
2023-04-22T15:10:31.040Z,99698.41
2023-04-22T15:13:01.607Z,99696.00
2023-04-22T15:15:33.794Z,99692.84
2023-04-22T15:18:03.425Z,99686.63
2023-04-22T15:20:33.105Z,99688.66
2023-04-22T15:23:04.020Z,99683.81
2023-04-22T15:25:33.616Z,99691.97
2023-04-22T15:28:03.572Z,99691.59
2023-04-22T15:30:35.730Z,99688.69
2023-04-22T15:33:05.403Z,99691.44
2023-04-22T15:35:35.029Z,99689.47
2023-04-22T15:38:04.822Z,99692.16
2023-04-22T15:40:34.392Z,99688.69
2023-04-22T15:43:03.942Z,99678.16
2023-04-22T15:45:37.095Z,99680.38
2023-04-22T15:48:07.048Z,99672.75
2023-04-22T15:50:38.878Z,99677.00
2023-04-22T15:53:09.592Z,99671.09
2023-04-22T15:55:39.155Z,99676.00
2023-04-22T15:58:08.708Z,99671.38
2023-04-22T16:00:41.280Z,99672.19
2023-04-22T16:03:11.684Z,99670.09
2023-04-22T16:05:41.350Z,99667.00
2023-04-22T16:08:10.939Z,99675.00
2023-04-22T16:10:40.466Z,99658.03
2023-04-22T16:13:10.120Z,99663.81
2023-04-22T16:15:42.324Z,99666.97
2023-04-22T16:18:12.059Z,99662.09
2023-04-22T16:20:41.811Z,99656.81
2023-04-22T16:23:11.323Z,99659.69
2023-04-22T16:25:41.083Z,99659.72
2023-04-22T16:28:11.343Z,99652.16
2023-04-22T16:30:43.560Z,99641.41
2023-04-22T16:33:13.304Z,99640.66
2023-04-22T16:35:44.293Z,99643.56
2023-04-22T16:38:13.827Z,99647.38
2023-04-22T16:40:43.352Z,99638.56
2023-04-22T16:43:13.107Z,99627.09
2023-04-22T16:45:45.413Z,99632.59
2023-04-22T16:48:14.996Z,99629.41
2023-04-22T16:50:44.714Z,99630.63
2023-04-22T16:53:14.311Z,99638.03
2023-04-22T16:55:43.850Z,99624.91
2023-04-22T16:58:13.786Z,99632.22
2023-04-22T17:00:47.575Z,99627.03
2023-04-22T17:03:17.699Z,99619.22
2023-04-22T17:05:47.295Z,99630.09
2023-04-22T17:08:16.844Z,99627.56
2023-04-22T17:10:48.321Z,99621.69
2023-04-22T17:13:18.624Z,99616.78
2023-04-22T17:15:50.855Z,99619.59
2023-04-22T17:18:20.515Z,99624.16
2023-04-22T17:20:50.078Z,99618.13
2023-04-22T17:23:20.631Z,99608.59
2023-04-22T17:25:50.202Z,99608.72
2023-04-22T17:28:19.804Z,99608.25
2023-04-22T17:30:54.520Z,99612.84
2023-04-22T17:33:26.700Z,99608.72
2023-04-22T17:35:56.252Z,99609.09
2023-04-22T17:38:25.965Z,99609.34
2023-04-22T17:40:55.533Z,99611.41
2023-04-22T17:43:25.123Z,99613.38
2023-04-22T17:45:57.363Z,99612.53
2023-04-22T17:48:26.927Z,99612.88
2023-04-22T17:50:56.540Z,99608.81
2023-04-22T17:53:26.105Z,99609.81
2023-04-22T17:55:55.664Z,99615.34
2023-04-22T17:58:25.715Z,99620.84
2023-04-22T18:00:58.790Z,99615.81
2023-04-22T18:03:28.636Z,99621.53
2023-04-22T18:05:58.246Z,99614.19
2023-04-22T18:08:27.836Z,99619.25
2023-04-22T18:10:57.741Z,99623.94
2023-04-22T18:13:27.307Z,99623.09
2023-04-22T18:15:59.432Z,99622.38
2023-04-22T18:18:28.997Z,99627.88
2023-04-22T18:20:58.621Z,99626.38
2023-04-22T18:23:28.151Z,99626.56
2023-04-22T18:25:57.755Z,99627.72
2023-04-22T18:28:27.261Z,99628.91
2023-04-22T18:30:59.474Z,99630.06
2023-04-22T18:33:29.081Z,99636.16
2023-04-22T18:36:00.056Z,99631.78
2023-04-22T18:38:29.920Z,99632.75
2023-04-22T18:40:59.567Z,99632.88
2023-04-22T18:43:29.200Z,99642.72
2023-04-22T18:46:01.367Z,99633.50
2023-04-22T18:48:30.988Z,99630.63
2023-04-22T18:51:00.541Z,99626.53
2023-04-22T18:53:30.529Z,99618.56
2023-04-22T18:56:00.086Z,99628.50
2023-04-22T18:58:29.622Z,99629.91
2023-04-22T19:01:01.902Z,99627.09
2023-04-22T19:03:31.542Z,99635.84
2023-04-22T19:06:01.262Z,99630.41
2023-04-22T19:08:30.836Z,99634.00
2023-04-22T19:11:00.381Z,99631.50
2023-04-22T19:13:30.457Z,99624.31
2023-04-22T19:16:02.859Z,99624.22
2023-04-22T19:18:32.495Z,99629.31
2023-04-22T19:21:03.111Z,99624.97
2023-04-22T19:23:32.946Z,99622.47
2023-04-22T19:26:02.579Z,99627.97
2023-04-22T19:28:32.152Z,99627.34
2023-04-22T19:31:05.032Z,99627.34
2023-04-22T19:33:34.741Z,99624.50
2023-04-22T19:36:04.296Z,99621.84
2023-04-22T19:38:33.967Z,99616.06
2023-04-22T19:41:03.660Z,99618.34
2023-04-22T19:43:33.192Z,99614.44
2023-04-22T19:46:05.488Z,99613.00
2023-04-22T19:48:36.380Z,99614.19
2023-04-22T19:51:08.042Z,99615.44
2023-04-22T19:53:38.142Z,99612.22
2023-04-22T19:56:07.946Z,99604.50
2023-04-22T19:58:37.929Z,99599.50
2023-04-22T20:01:10.459Z,99604.09
2023-04-22T20:03:40.799Z,99609.69
2023-04-22T20:06:11.012Z,99608.19
2023-04-22T20:08:42.372Z,99610.19
2023-04-22T20:11:12.712Z,99606.81
2023-04-22T20:13:43.367Z,99604.25
2023-04-22T20:16:16.293Z,99594.66
2023-04-22T20:18:46.458Z,99598.38
2023-04-22T20:21:16.666Z,99595.84
2023-04-22T20:23:47.479Z,99598.59
2023-04-22T20:26:21.148Z,99603.97
2023-04-22T20:28:53.375Z,99601.31
2023-04-22T20:31:25.851Z,99596.09
2023-04-22T20:33:55.740Z,99595.19
2023-04-22T20:36:26.669Z,99601.28
2023-04-22T20:38:58.413Z,99601.28
2023-04-22T20:41:29.686Z,99602.38
2023-04-22T20:43:59.624Z,99602.44
2023-04-22T20:46:32.155Z,99599.97
2023-04-22T20:49:01.732Z,99605.44
2023-04-22T20:51:32.051Z,99594.97
2023-04-22T20:54:01.920Z,99589.78
2023-04-22T20:56:32.137Z,99593.44
2023-04-22T20:59:01.877Z,99588.31
2023-04-22T21:01:34.050Z,99589.25
2023-04-22T21:04:04.691Z,99590.19
2023-04-22T21:06:36.659Z,99589.34
2023-04-22T21:09:07.797Z,99587.66
2023-04-22T21:11:38.142Z,99587.72
2023-04-22T21:14:08.275Z,99593.06
2023-04-22T21:16:43.791Z,99588.75
2023-04-22T21:19:15.287Z,99583.72
2023-04-22T21:21:46.848Z,99588.09
2023-04-22T21:24:17.342Z,99597.69
2023-04-22T21:26:49.420Z,99587.97
2023-04-22T21:29:19.492Z,99595.81
2023-04-22T21:32:01.460Z,99586.25
2023-04-22T21:34:37.289Z,99585.44
2023-04-22T21:37:08.338Z,99585.53
2023-04-22T21:39:38.243Z,99597.88
2023-04-22T21:42:08.959Z,99590.97
2023-04-22T21:44:39.381Z,99589.25
2023-04-22T21:47:11.688Z,99586.66
2023-04-22T21:49:41.236Z,99591.06
2023-04-22T21:52:10.818Z,99595.47
2023-04-22T21:54:40.932Z,99587.59
2023-04-22T21:57:10.721Z,99589.34
2023-04-22T21:59:40.282Z,99584.94
2023-04-22T22:02:12.424Z,99587.59
2023-04-22T22:04:42.431Z,99584.97
2023-04-22T22:07:12.460Z,99593.72
2023-04-22T22:09:43.348Z,99587.66
2023-04-22T22:12:15.599Z,99585.06
2023-04-22T22:14:46.002Z,99582.47
2023-04-22T22:17:19.811Z,99589.50
2023-04-22T22:19:49.359Z,99591.28
2023-04-22T22:22:18.900Z,99589.53
2023-04-22T22:24:48.492Z,99584.25
2023-04-22T22:27:18.112Z,99583.38
2023-04-22T22:29:47.659Z,99587.72
2023-04-22T22:32:19.783Z,99587.72
2023-04-22T22:34:49.377Z,99591.25
2023-04-22T22:37:19.002Z,99584.22
2023-04-22T22:39:48.564Z,99588.56
2023-04-22T22:42:18.378Z,99592.94
2023-04-22T22:44:47.932Z,99586.81
2023-04-22T22:47:20.387Z,99581.59
2023-04-22T22:49:50.155Z,99580.72
2023-04-22T22:52:19.748Z,99583.38
2023-04-22T22:54:51.666Z,99585.13
2023-04-22T22:57:21.193Z,99579.88
2023-04-22T22:59:50.746Z,99577.25
2023-04-22T23:02:22.981Z,99584.28
2023-04-22T23:04:52.744Z,99592.16
2023-04-22T23:07:22.517Z,99583.41
2023-04-22T23:09:52.028Z,99584.28
2023-04-22T23:12:21.833Z,99579.91
2023-04-22T23:14:51.371Z,99579.91
2023-04-22T23:17:23.685Z,99580.75
2023-04-22T23:19:54.412Z,99576.38
2023-04-22T23:22:24.981Z,99572.03
2023-04-22T23:24:55.155Z,99561.56
2023-04-22T23:27:25.671Z,99566.81
2023-04-22T23:29:56.044Z,99567.69
2023-04-22T23:32:29.964Z,99561.56
2023-04-22T23:35:02.739Z,99563.28
2023-04-22T23:37:32.725Z,99562.41
2023-04-22T23:40:02.287Z,99566.78
2023-04-22T23:42:31.815Z,99565.94
2023-04-22T23:45:01.390Z,99553.66
2023-04-22T23:47:33.911Z,99552.81
2023-04-22T23:50:03.517Z,99559.81
2023-04-22T23:52:33.105Z,99553.69
2023-04-22T23:55:03.140Z,99552.78
2023-04-22T23:57:33.317Z,99558.91
